Livonia Center, New York
Current Conditions -  °F | °C
As of 3:14 PM on Wednesday 26 Nov 2014 (Local Time) from KDSV Reporting Station
Light Snow Light Snow  
Wind Chill: 23°   Ceiling: 1800
Heat Index: 32°   Visibility: 9mi
Dew Point: 30°   Wind: 12mph
Humidity: 92%   Direction: 320°NW
Pressure: 30.07"   Gusts: NA
Location:  42.82°N, 77.64°W
Report Text: KDSV 262014Z AUTO 32010KT 9SM -SN SCT004 OVC018 00/M01 A3007 RMK AO2 P0000 T00001011
Loading
Personal Weather Stations






























Interactive Weather Map New forecast layout! Learn more

10-Day Weather Forecast

Advertisements
Track Severe Weather on mobile